Weather Models
Both GFS & NAM
00z 06z 12z 18z
24hr Precip
00z 06z 12z 18z
36hr Simulated radar
00z 06z 12z 18z
SKEWT Soundings
00z 12z
Current Conditions (Updated 4:15pm on 4/7/20)
Temperature
 70°
-1.21
73°  
52°  
0
10
20
30
40
50
60
70
80
90
100
Dew Point
42°
42°  
30°  
-20
-10
0
10
20
30
40
50
60
70
80
Heat Index
69°
72°  
53°  
30
40
50
60
70
80
90
100
110
120
130
Heat Index
Humidity
36%
55% 
26% 
0
10
20
30
40
50
60
70
80
90
100
Barometer
29.81
   Falling
30.01  
29.81  
28.00
28.30
28.60
28.90
29.20
29.50
29.80
30.10
30.40
30.70
31.00
Temperature
Dew Point
Humidity
Pressure
Wind
13mph
 SW
Daily Rain
.00
.05
.10
.15
.20
.25
.30
.35
.40
.45
.50
Rain Today
 0.00" 
Month Rain
0.00
0.20
0.40
0.60
0.80
1.00
1.20
1.40
1.60
1.80
2.00
Month Rain
 0.01" 
Year Rain
0.00
1.00
2.00
3.00
4.00
5.00
6.00
7.00
8.00
9.00
10.00
Year Rain
 9.26" 
Sun & Moon Data
Sunrise 6:32am
Sunset 7:29pm
Moonrise 7:11pm
Moonset 6:38am
Moon % 99%
Other Rain Data
Past Hour 0.00 Past 24 Hours 0.00
Past 3 Hours 0.00 Past 7 Days 0.02
Past 6 Hours 0.00
Cloud Height
7027


Current Front Map
Current Satellite map
7 Day Forecast
NWS Forecast for Philadelphia PA
National Weather Service Forecast for: Philadelphia PA
Issued by: National Weather Service Philadelphia, PA
Updated: 1:17 pm EDT Apr 7, 2020

Philadelphia
 
Tonight

Tonight: A slight chance of showers and thunderstorms before 8pm, then a chance of showers and thunderstorms after 9pm.  Mostly cloudy, with a low around 54. Southwest wind 5 to 10 mph.  Chance of precipitation is 50%. New rainfall amounts of less than a tenth of an inch, except higher amounts possible in thunderstorms.
Chance
Showers

Wednesday

Wednesday: Showers and thunderstorms likely before 1pm, then a chance of showers.  Cloudy, then gradually becoming mostly sunny, with a high near 72. Southwest wind 5 to 10 mph, with gusts as high as 20 mph.  Chance of precipitation is 60%. New precipitation amounts of less than a tenth of an inch, except higher amounts possible in thunderstorms.
Showers
Likely then
Chance
Showers
Wednesday
Night
Wednesday Night: A chance of showers, mainly before 7pm.  Mostly cloudy, with a low around 48. North wind 5 to 10 mph becoming light and variable  after midnight.  Chance of precipitation is 30%. New precipitation amounts of less than a tenth of an inch possible.
Chance
Showers then
Mostly Cloudy
Thursday

Thursday: Showers likely and possibly a thunderstorm between 9am and 3pm, then a chance of showers after 3pm.  Cloudy, with a high near 62. Southeast wind 5 to 10 mph becoming west 10 to 15 mph in the afternoon. Winds could gust as high as 30 mph.  Chance of precipitation is 70%. New rainfall amounts between a tenth and quarter of an inch, except higher amounts possible in thunderstorms.
Showers
Likely

Thursday
Night
Thursday Night: A chance of showers before 9pm.  Partly cloudy, with a low around 40. West wind around 15 mph, with gusts as high as 25 mph.  Chance of precipitation is 50%. New precipitation amounts of less than a tenth of an inch possible.
Chance
Showers then
Partly Cloudy
Friday

Friday: Mostly sunny, with a high near 52. Breezy.
Mostly Sunny
then Partly
Sunny and
Breezy
Friday
Night
Friday Night: Mostly clear, with a low around 37.
Mostly Clear

Saturday

Saturday: Sunny, with a high near 56.
Sunny

Saturday
Night
Saturday Night: A chance of rain after 3am.  Partly cloudy, with a low around 42. Chance of precipitation is 30%.
Partly Cloudy
then Chance
Rain
Lo 54 °F Hi 72 °F Lo 48 °F Hi 62 °F Lo 40 °F Hi 52 °F Lo 37 °F Hi 56 °F Lo 42 °F

Hazardous Weather Outlook
 

Tonight
 
A slight chance of showers and thunderstorms before 8pm, then a chance of showers and thunderstorms after 9pm. Mostly cloudy, with a low around 54. Southwest wind 5 to 10 mph. Chance of precipitation is 50%. New rainfall amounts of less than a tenth of an inch, except higher amounts possible in thunderstorms.
Wednesday
 
Showers and thunderstorms likely before 1pm, then a chance of showers. Cloudy, then gradually becoming mostly sunny, with a high near 72. Southwest wind 5 to 10 mph, with gusts as high as 20 mph. Chance of precipitation is 60%. New precipitation amounts of less than a tenth of an inch, except higher amounts possible in thunderstorms.
Wednesday Night
 
A chance of showers, mainly before 7pm. Mostly cloudy, with a low around 48. North wind 5 to 10 mph becoming light and variable after midnight. Chance of precipitation is 30%. New precipitation amounts of less than a tenth of an inch possible.
Thursday
 
Showers likely and possibly a thunderstorm between 9am and 3pm, then a chance of showers after 3pm. Cloudy, with a high near 62. Southeast wind 5 to 10 mph becoming west 10 to 15 mph in the afternoon. Winds could gust as high as 30 mph. Chance of precipitation is 70%. New rainfall amounts between a tenth and quarter of an inch, except higher amounts possible in thunderstorms.
Thursday Night
 
A chance of showers before 9pm. Partly cloudy, with a low around 40. West wind around 15 mph, with gusts as high as 25 mph. Chance of precipitation is 50%. New precipitation amounts of less than a tenth of an inch possible.
Friday
 
Mostly sunny, with a high near 52. Breezy.
Friday Night
 
Mostly clear, with a low around 37.
Saturday
 
Sunny, with a high near 56.
Saturday Night
 
A chance of rain after 3am. Partly cloudy, with a low around 42. Chance of precipitation is 30%.
Sunday
 
A chance of rain before 3pm, then a chance of showers after 3pm. Partly sunny, with a high near 63. Chance of precipitation is 50%.
Sunday Night
 
Showers likely. Cloudy, with a low around 51. Chance of precipitation is 60%.
Monday
 
Showers likely. Partly sunny, with a high near 65. Chance of precipitation is 60%.
Monday Night
 
A chance of showers. Mostly clear, with a low around 44. Chance of precipitation is 40%.
Tuesday
 
Sunny, with a high near 59.

 

Forecast from NOAA-NWS for Philadelphia PA.

Area Weather Current Conditions
Nearby METAR Reports

KPHL - Philadelphia, Pennsylvania
Updated: Tue, 07-Apr-2020 3:54pm EDT
Mostly Cloudy
Mostly Cloudy
 Wind from SW
Wind: SW 9 mph , 15 km/h
Temperature: 64°F , 18°C
Dew Point: 45°F , 7°C
Humidity: 49%
Barometer: 29.82 inHg , 1009.8 hPa
Clouds: Mostly Cloudy
Visibility: 10 miles , 16 km
Cloud details: Mostly Cloudy 10000 ft
Mostly Cloudy 20000 ft
2020/04/07 19:54 KPHL 071954Z 23008KT 10SM BKN100 BKN200 18/07 A2982 RMK AO2 SLP096 T01780067
KMPO - Mt. Pocono, Pennsylvania
Updated: Tue, 07-Apr-2020 3:53pm EDT
Mostly Cloudy
Mostly Cloudy
 Wind from SSW
Wind: SSW 12 mph , 19 km/h
Temperature: 61°F , 16°C
Dew Point: 28°F , -2°C
Humidity: 29%
Barometer: 29.77 inHg , 1008.1 hPa
Clouds: Mostly Cloudy
Visibility: 10 miles , 16 km
Cloud details: Mostly Cloudy 8000 ft
2020/04/07 19:53 KMPO 071953Z AUTO 20010KT 10SM BKN080 16/M02 A2977 RMK AO2 SLP085 T01611017
 
KACY - Atlantic City, New Jersey
Updated: Tue, 07-Apr-2020 3:54pm EDT
Mostly Cloudy
Mostly Cloudy
 Wind from S
Wind: S 7 mph , 11 km/h
Temperature: 61°F , 16°C
Dew Point: 37°F , 3°C
Humidity: 42%
Barometer: 29.84 inHg , 1010.5 hPa
Clouds: Mostly Cloudy
Visibility: 10 miles , 16 km
Cloud details: Mostly Cloudy 10000 ft
2020/04/07 19:54 KACY 071954Z 19006KT 10SM BKN100 16/03 A2984 RMK AO2 SLP103 T01610028
KMIV - Millville, New Jersey
Updated: Tue, 07-Apr-2020 3:54pm EDT
Clear
Clear
 Wind from SSE
Wind: SSE 7 mph , 11 km/h
Temperature: 63°F , 17°C
Dew Point: 39°F , 4°C
Humidity: 42%
Barometer: 29.83 inHg , 1010.2 hPa
Clouds: Clear
Visibility: 10 miles , 16 km
2020/04/07 19:54 KMIV 071954Z AUTO 16006KT 10SM CLR 17/04 A2983 RMK AO2 SLP099 T01670039
 
KWWD - Wildwood, New Jersey
Updated: Tue, 07-Apr-2020 3:56pm EDT
Clear
Clear
 Wind from SSE
Wind: SSE 12 mph , 19 km/h
Temperature: 57°F , 14°C
Dew Point: 46°F , 8°C
Humidity: 67%
Barometer: 29.84 inHg , 1010.5 hPa
Clouds: Clear
Visibility: 10 miles , 16 km
2020/04/07 19:56 KWWD 071956Z AUTO 15010KT 10SM CLR 14/08 A2984 RMK AO2 SLP108 T01440083
KDOV - Dover Afb, Delaware
Updated: Tue, 07-Apr-2020 3:56pm EDT
Partly Cloudy
Partly Cloudy
 Wind from E
Wind: E 7 mph , 11 km/h
Temperature: 57°F , 14°C
Dew Point: 50°F , 10°C
Humidity: 77%
Barometer: 29.82 inHg , 1009.8 hPa
Clouds: Partly Cloudy
Visibility: 10 miles , 16 km
Cloud details: Few Clouds 11000 ft
Partly Cloudy 13000 ft
Partly Cloudy 19000 ft
2020/04/07 19:56 KDOV 071956Z AUTO 09006KT 10SM FEW110 SCT130 SCT190 14/10 A2982 RMK AO2 SLP101 T01410097 $
Severe Weather Map